sensor_id;sensor_type;location;lat;lon;timestamp;pressure;altitude;pressure_sealevel;temperature;humidity
24788;BME280;12883;52.662;5.196;2022-11-15T00:01:42;100816.91;;;8.17;100.00
24788;BME280;12883;52.662;5.196;2022-11-15T00:04:07;100814.00;;;8.12;100.00
24788;BME280;12883;52.662;5.196;2022-11-15T00:06:32;100816.13;;;8.16;100.00
24788;BME280;12883;52.662;5.196;2022-11-15T00:08:58;100810.91;;;8.08;100.00
24788;BME280;12883;52.662;5.196;2022-11-15T00:11:24;100807.91;;;8.11;100.00
24788;BME280;12883;52.662;5.196;2022-11-15T00:13:49;100802.81;;;8.10;100.00
24788;BME280;12883;52.662;5.196;2022-11-15T00:16:15;100794.06;;;8.09;100.00
24788;BME280;12883;52.662;5.196;2022-11-15T00:18:40;100795.06;;;8.23;100.00
24788;BME280;12883;52.662;5.196;2022-11-15T00:21:09;100792.44;;;8.23;100.00
24788;BME280;12883;52.662;5.196;2022-11-15T00:23:34;100791.06;;;8.27;100.00
24788;BME280;12883;52.662;5.196;2022-11-15T00:26:00;100785.97;;;8.25;100.00
24788;BME280;12883;52.662;5.196;2022-11-15T00:28:26;100789.22;;;8.27;100.00
24788;BME280;12883;52.662;5.196;2022-11-15T00:30:51;100781.75;;;8.31;100.00
24788;BME280;12883;52.662;5.196;2022-11-15T00:33:16;100741.13;;;8.03;100.00
24788;BME280;12883;52.662;5.196;2022-11-15T00:35:42;100767.97;;;8.35;100.00
24788;BME280;12883;52.662;5.196;2022-11-15T00:38:07;100769.88;;;8.41;100.00
24788;BME280;12883;52.662;5.196;2022-11-15T00:40:33;100722.72;;;8.09;100.00
24788;BME280;12883;52.662;5.196;2022-11-15T00:42:58;100762.34;;;8.38;100.00
24788;BME280;12883;52.662;5.196;2022-11-15T00:45:24;100774.59;;;8.46;100.00
24788;BME280;12883;52.662;5.196;2022-11-15T00:47:50;100748.16;;;8.46;100.00
24788;BME280;12883;52.662;5.196;2022-11-15T00:50:16;100714.13;;;8.07;100.00
24788;BME280;12883;52.662;5.196;2022-11-15T00:52:42;100783.63;;;8.51;100.00
24788;BME280;12883;52.662;5.196;2022-11-15T00:55:13;100763.47;;;8.50;100.00
24788;BME280;12883;52.662;5.196;2022-11-15T00:57:39;100759.31;;;8.41;100.00
24788;BME280;12883;52.662;5.196;2022-11-15T01:00:05;100754.28;;;8.46;100.00
24788;BME280;12883;52.662;5.196;2022-11-15T01:02:30;100757.19;;;8.51;100.00
24788;BME280;12883;52.662;5.196;2022-11-15T01:04:56;100769.41;;;8.52;100.00
24788;BME280;12883;52.662;5.196;2022-11-15T01:07:21;100770.41;;;8.51;100.00
24788;BME280;12883;52.662;5.196;2022-11-15T01:09:46;100790.59;;;8.38;100.00
24788;BME280;12883;52.662;5.196;2022-11-15T01:12:12;100769.75;;;8.49;100.00
24788;BME280;12883;52.662;5.196;2022-11-15T01:14:37;100764.75;;;8.54;100.00
24788;BME280;12883;52.662;5.196;2022-11-15T01:17:02;100765.13;;;8.51;100.00
24788;BME280;12883;52.662;5.196;2022-11-15T01:19:28;100754.44;;;8.59;100.00
24788;BME280;12883;52.662;5.196;2022-11-15T01:21:53;100758.31;;;8.63;100.00
24788;BME280;12883;52.662;5.196;2022-11-15T01:24:18;100761.75;;;8.57;100.00
24788;BME280;12883;52.662;5.196;2022-11-15T01:26:44;100748.59;;;8.49;100.00
24788;BME280;12883;52.662;5.196;2022-11-15T01:29:09;100732.66;;;8.57;100.00
24788;BME280;12883;52.662;5.196;2022-11-15T01:31:34;100740.06;;;8.47;100.00
24788;BME280;12883;52.662;5.196;2022-11-15T01:34:00;100746.16;;;8.48;100.00
24788;BME280;12883;52.662;5.196;2022-11-15T01:36:25;100729.75;;;8.52;100.00
24788;BME280;12883;52.662;5.196;2022-11-15T01:38:55;100733.00;;;8.54;100.00
24788;BME280;12883;52.662;5.196;2022-11-15T01:41:24;100723.78;;;8.50;100.00
24788;BME280;12883;52.662;5.196;2022-11-15T01:43:53;100724.72;;;8.57;100.00
24788;BME280;12883;52.662;5.196;2022-11-15T01:46:29;100738.16;;;8.62;100.00
24788;BME280;12883;52.662;5.196;2022-11-15T01:48:58;100733.72;;;8.63;100.00
24788;BME280;12883;52.662;5.196;2022-11-15T01:51:27;100739.13;;;8.55;100.00
24788;BME280;12883;52.662;5.196;2022-11-15T01:53:58;100723.50;;;8.60;100.00
24788;BME280;12883;52.662;5.196;2022-11-15T01:56:27;100733.97;;;8.68;100.00
24788;BME280;12883;52.662;5.196;2022-11-15T01:58:56;100733.59;;;8.71;100.00
24788;BME280;12883;52.662;5.196;2022-11-15T02:01:24;100714.56;;;8.61;100.00
24788;BME280;12883;52.662;5.196;2022-11-15T02:03:55;100720.63;;;8.76;100.00
24788;BME280;12883;52.662;5.196;2022-11-15T02:06:22;100712.28;;;8.79;100.00
24788;BME280;12883;52.662;5.196;2022-11-15T02:08:49;100705.19;;;8.79;100.00
24788;BME280;12883;52.662;5.196;2022-11-15T02:11:15;100713.56;;;8.83;100.00
24788;BME280;12883;52.662;5.196;2022-11-15T02:13:40;100705.84;;;8.88;100.00
24788;BME280;12883;52.662;5.196;2022-11-15T02:29:20;100675.13;;;9.14;100.00
24788;BME280;12883;52.662;5.196;2022-11-15T02:32:08;100685.06;;;9.12;100.00
24788;BME280;12883;52.662;5.196;2022-11-15T02:34:57;100669.13;;;8.99;100.00
24788;BME280;12883;52.662;5.196;2022-11-15T02:42:52;100656.53;;;9.08;100.00
24788;BME280;12883;52.662;5.196;2022-11-15T02:45:53;100658.81;;;9.11;100.00
24788;BME280;12883;52.662;5.196;2022-11-15T02:48:21;100671.03;;;9.12;100.00
24788;BME280;12883;52.662;5.196;2022-11-15T02:50:47;100655.97;;;9.12;100.00
24788;BME280;12883;52.662;5.196;2022-11-15T02:53:14;100654.75;;;9.15;100.00
24788;BME280;12883;52.662;5.196;2022-11-15T02:55:45;100653.97;;;9.14;100.00
24788;BME280;12883;52.662;5.196;2022-11-15T03:01:09;100638.94;;;9.21;100.00
24788;BME280;12883;52.662;5.196;2022-11-15T03:03:45;100628.78;;;9.31;100.00
24788;BME280;12883;52.662;5.196;2022-11-15T03:06:23;100613.59;;;9.12;100.00
24788;BME280;12883;52.662;5.196;2022-11-15T03:09:20;100620.19;;;9.23;100.00
24788;BME280;12883;52.662;5.196;2022-11-15T03:11:46;100612.88;;;9.25;100.00
24788;BME280;12883;52.662;5.196;2022-11-15T03:14:25;100602.75;;;9.35;100.00
24788;BME280;12883;52.662;5.196;2022-11-15T03:19:57;100604.81;;;9.39;100.00
24788;BME280;12883;52.662;5.196;2022-11-15T03:22:25;100610.34;;;9.44;100.00
24788;BME280;12883;52.662;5.196;2022-11-15T03:24:59;100615.25;;;9.47;100.00
24788;BME280;12883;52.662;5.196;2022-11-15T03:27:30;100608.53;;;9.51;100.00
24788;BME280;12883;52.662;5.196;2022-11-15T03:30:02;100612.38;;;9.48;100.00
24788;BME280;12883;52.662;5.196;2022-11-15T03:32:31;100595.91;;;9.53;100.00
24788;BME280;12883;52.662;5.196;2022-11-15T03:34:58;100593.88;;;9.55;100.00
24788;BME280;12883;52.662;5.196;2022-11-15T03:39:58;100607.34;;;9.60;100.00
24788;BME280;12883;52.662;5.196;2022-11-15T03:42:31;100608.78;;;9.62;100.00
24788;BME280;12883;52.662;5.196;2022-11-15T03:45:10;100608.44;;;9.78;100.00
24788;BME280;12883;52.662;5.196;2022-11-15T03:47:42;100603.72;;;9.74;100.00
24788;BME280;12883;52.662;5.196;2022-11-15T03:50:14;100597.44;;;9.81;100.00
24788;BME280;12883;52.662;5.196;2022-11-15T03:52:41;100591.53;;;9.86;100.00
24788;BME280;12883;52.662;5.196;2022-11-15T03:55:10;100592.97;;;9.88;100.00
24788;BME280;12883;52.662;5.196;2022-11-15T03:57:36;100597.06;;;9.91;100.00
24788;BME280;12883;52.662;5.196;2022-11-15T04:00:03;100591.16;;;9.95;100.00
24788;BME280;12883;52.662;5.196;2022-11-15T04:02:29;100585.63;;;9.90;100.00
24788;BME280;12883;52.662;5.196;2022-11-15T04:04:54;100590.56;;;10.00;100.00
24788;BME280;12883;52.662;5.196;2022-11-15T04:07:19;100583.47;;;10.07;100.00
24788;BME280;12883;52.662;5.196;2022-11-15T04:09:45;100590.84;;;10.18;100.00
24788;BME280;12883;52.662;5.196;2022-11-15T04:12:40;100581.03;;;10.12;100.00
24788;BME280;12883;52.662;5.196;2022-11-15T04:15:11;100583.06;;;10.16;100.00
24788;BME280;12883;52.662;5.196;2022-11-15T04:17:45;100580.63;;;10.15;100.00
24788;BME280;12883;52.662;5.196;2022-11-15T04:20:12;100572.69;;;10.21;100.00
24788;BME280;12883;52.662;5.196;2022-11-15T04:22:58;100584.31;;;10.27;100.00
24788;BME280;12883;52.662;5.196;2022-11-15T04:25:43;100576.56;;;10.32;100.00
24788;BME280;12883;52.662;5.196;2022-11-15T04:28:10;100576.97;;;10.35;100.00
24788;BME280;12883;52.662;5.196;2022-11-15T04:30:35;100572.09;;;10.39;100.00
24788;BME280;12883;52.662;5.196;2022-11-15T04:33:01;100578.59;;;10.43;100.00
24788;BME280;12883;52.662;5.196;2022-11-15T04:35:26;100571.03;;;10.46;100.00
24788;BME280;12883;52.662;5.196;2022-11-15T04:37:52;100580.25;;;10.44;100.00
24788;BME280;12883;52.662;5.196;2022-11-15T04:40:18;100570.47;;;10.51;100.00
24788;BME280;12883;52.662;5.196;2022-11-15T04:42:43;100567.59;;;10.59;100.00
24788;BME280;12883;52.662;5.196;2022-11-15T04:45:09;100599.81;;;10.56;100.00
24788;BME280;12883;52.662;5.196;2022-11-15T04:47:35;100568.78;;;10.63;100.00
24788;BME280;12883;52.662;5.196;2022-11-15T04:50:00;100561.47;;;10.65;100.00
24788;BME280;12883;52.662;5.196;2022-11-15T04:52:26;100565.31;;;10.69;100.00
24788;BME280;12883;52.662;5.196;2022-11-15T04:54:51;100559.81;;;10.64;100.00
24788;BME280;12883;52.662;5.196;2022-11-15T04:57:17;100558.19;;;10.76;100.00
24788;BME280;12883;52.662;5.196;2022-11-15T04:59:42;100552.88;;;10.76;100.00
24788;BME280;12883;52.662;5.196;2022-11-15T05:02:07;100558.56;;;10.79;100.00
24788;BME280;12883;52.662;5.196;2022-11-15T05:04:33;100560.00;;;10.82;100.00
24788;BME280;12883;52.662;5.196;2022-11-15T05:06:58;100569.81;;;10.75;100.00
24788;BME280;12883;52.662;5.196;2022-11-15T05:09:23;100569.63;;;10.76;100.00
24788;BME280;12883;52.662;5.196;2022-11-15T05:11:49;100561.03;;;10.81;100.00
24788;BME280;12883;52.662;5.196;2022-11-15T05:14:14;100568.34;;;10.92;100.00
24788;BME280;12883;52.662;5.196;2022-11-15T05:16:40;100556.13;;;10.84;100.00
24788;BME280;12883;52.662;5.196;2022-11-15T05:19:06;100568.97;;;10.94;100.00
24788;BME280;12883;52.662;5.196;2022-11-15T05:21:32;100564.06;;;10.91;100.00
24788;BME280;12883;52.662;5.196;2022-11-15T05:23:57;100566.53;;;10.92;100.00
24788;BME280;12883;52.662;5.196;2022-11-15T05:26:23;100567.94;;;10.88;100.00
24788;BME280;12883;52.662;5.196;2022-11-15T05:28:55;100561.81;;;10.94;100.00
24788;BME280;12883;52.662;5.196;2022-11-15T05:31:22;100561.00;;;10.94;100.00
24788;BME280;12883;52.662;5.196;2022-11-15T05:33:49;100574.25;;;11.00;100.00
24788;BME280;12883;52.662;5.196;2022-11-15T05:36:35;100554.88;;;11.00;100.00
24788;BME280;12883;52.662;5.196;2022-11-15T05:39:04;100553.03;;;11.07;100.00
24788;BME280;12883;52.662;5.196;2022-11-15T05:41:37;100556.47;;;11.07;100.00
24788;BME280;12883;52.662;5.196;2022-11-15T05:44:07;100558.94;;;11.09;100.00
24788;BME280;12883;52.662;5.196;2022-11-15T05:46:33;100576.88;;;11.20;100.00
24788;BME280;12883;52.662;5.196;2022-11-15T05:48:59;100593.03;;;11.12;100.00
24788;BME280;12883;52.662;5.196;2022-11-15T05:51:27;100562.63;;;11.08;100.00
24788;BME280;12883;52.662;5.196;2022-11-15T05:53:55;100565.47;;;11.13;100.00
24788;BME280;12883;52.662;5.196;2022-11-15T05:56:21;100563.41;;;11.08;100.00
24788;BME280;12883;52.662;5.196;2022-11-15T05:58:47;100569.94;;;11.12;100.00
24788;BME280;12883;52.662;5.196;2022-11-15T06:01:12;100577.09;;;11.12;100.00
24788;BME280;12883;52.662;5.196;2022-11-15T06:03:37;100575.22;;;11.19;100.00
24788;BME280;12883;52.662;5.196;2022-11-15T06:06:03;100583.44;;;11.17;100.00
24788;BME280;12883;52.662;5.196;2022-11-15T06:08:28;100539.78;;;10.94;100.00
24788;BME280;12883;52.662;5.196;2022-11-15T06:10:54;100528.97;;;10.89;100.00
24788;BME280;12883;52.662;5.196;2022-11-15T06:13:19;100583.00;;;11.27;100.00
24788;BME280;12883;52.662;5.196;2022-11-15T06:15:44;100594.84;;;11.24;100.00
24788;BME280;12883;52.662;5.196;2022-11-15T06:18:10;100598.06;;;11.33;100.00
24788;BME280;12883;52.662;5.196;2022-11-15T06:20:35;100595.25;;;11.28;100.00
24788;BME280;12883;52.662;5.196;2022-11-15T06:23:02;100607.47;;;11.35;100.00
24788;BME280;12883;52.662;5.196;2022-11-15T06:25:29;100610.31;;;11.40;100.00
24788;BME280;12883;52.662;5.196;2022-11-15T06:27:56;100597.66;;;11.36;100.00
24788;BME280;12883;52.662;5.196;2022-11-15T06:30:23;100602.16;;;11.35;100.00
24788;BME280;12883;52.662;5.196;2022-11-15T06:32:49;100611.31;;;11.46;100.00
24788;BME280;12883;52.662;5.196;2022-11-15T06:35:15;100605.59;;;11.42;100.00
24788;BME280;12883;52.662;5.196;2022-11-15T06:37:41;100603.78;;;11.36;100.00
24788;BME280;12883;52.662;5.196;2022-11-15T06:40:08;100609.69;;;11.45;100.00
24788;BME280;12883;52.662;5.196;2022-11-15T06:42:33;100600.31;;;11.36;100.00
24788;BME280;12883;52.662;5.196;2022-11-15T06:44:59;100612.75;;;11.48;100.00
24788;BME280;12883;52.662;5.196;2022-11-15T06:47:24;100608.66;;;11.52;100.00
24788;BME280;12883;52.662;5.196;2022-11-15T06:49:50;100606.78;;;11.53;100.00
24788;BME280;12883;52.662;5.196;2022-11-15T06:52:15;100606.19;;;11.51;100.00
24788;BME280;12883;52.662;5.196;2022-11-15T06:54:43;100611.72;;;11.56;100.00
24788;BME280;12883;52.662;5.196;2022-11-15T06:57:09;100615.19;;;11.50;100.00
24788;BME280;12883;52.662;5.196;2022-11-15T06:59:34;100612.75;;;11.48;100.00
24788;BME280;12883;52.662;5.196;2022-11-15T07:01:59;100598.03;;;11.46;100.00
24788;BME280;12883;52.662;5.196;2022-11-15T07:04:25;100612.75;;;11.48;100.00
24788;BME280;12883;52.662;5.196;2022-11-15T07:06:50;100620.31;;;11.51;100.00
24788;BME280;12883;52.662;5.196;2022-11-15T07:09:15;100619.91;;;11.48;100.00
24788;BME280;12883;52.662;5.196;2022-11-15T07:11:41;100618.88;;;11.49;100.00
24788;BME280;12883;52.662;5.196;2022-11-15T07:14:06;100620.06;;;11.53;100.00
24788;BME280;12883;52.662;5.196;2022-11-15T07:16:31;100621.75;;;11.47;100.00
24788;BME280;12883;52.662;5.196;2022-11-15T07:18:57;100616.03;;;11.44;100.00
24788;BME280;12883;52.662;5.196;2022-11-15T07:21:22;100624.41;;;11.47;100.00
24788;BME280;12883;52.662;5.196;2022-11-15T07:23:47;100632.56;;;11.46;100.00
24788;BME280;12883;52.662;5.196;2022-11-15T07:26:13;100624.00;;;11.44;100.00
24788;BME280;12883;52.662;5.196;2022-11-15T07:28:38;100620.50;;;11.43;100.00
24788;BME280;12883;52.662;5.196;2022-11-15T07:31:05;100629.50;;;11.49;100.00
24788;BME280;12883;52.662;5.196;2022-11-15T07:33:31;100620.56;;;11.30;100.00
24788;BME280;12883;52.662;5.196;2022-11-15T07:36:02;100621.78;;;11.41;100.00
24788;BME280;12883;52.662;5.196;2022-11-15T07:38:28;100630.34;;;11.43;100.00
24788;BME280;12883;52.662;5.196;2022-11-15T07:40:59;100624.84;;;11.25;100.00
24788;BME280;12883;52.662;5.196;2022-11-15T07:43:25;100621.78;;;11.34;100.00
24788;BME280;12883;52.662;5.196;2022-11-15T07:45:50;100615.44;;;11.42;100.00
24788;BME280;12883;52.662;5.196;2022-11-15T07:48:16;100629.94;;;11.33;100.00
24788;BME280;12883;52.662;5.196;2022-11-15T07:50:42;100629.13;;;11.45;100.00
24788;BME280;12883;52.662;5.196;2022-11-15T07:53:08;100626.66;;;11.44;100.00
24788;BME280;12883;52.662;5.196;2022-11-15T07:55:34;100611.94;;;11.48;100.00
24788;BME280;12883;52.662;5.196;2022-11-15T07:58:04;100619.28;;;11.52;100.00
24788;BME280;12883;52.662;5.196;2022-11-15T08:00:30;100617.25;;;11.48;100.00
24788;BME280;12883;52.662;5.196;2022-11-15T08:03:07;100546.69;;;11.08;100.00
24788;BME280;12883;52.662;5.196;2022-11-15T08:05:33;100614.59;;;11.41;100.00
24788;BME280;12883;52.662;5.196;2022-11-15T08:07:58;100616.47;;;11.41;100.00
24788;BME280;12883;52.662;5.196;2022-11-15T08:10:25;100631.97;;;11.44;100.00
24788;BME280;12883;52.662;5.196;2022-11-15T08:12:58;100630.16;;;11.44;100.00
24788;BME280;12883;52.662;5.196;2022-11-15T08:15:24;100625.44;;;11.40;100.00
24788;BME280;12883;52.662;5.196;2022-11-15T08:17:54;100627.09;;;11.41;100.00
24788;BME280;12883;52.662;5.196;2022-11-15T08:20:19;100606.66;;;11.28;100.00
24788;BME280;12883;52.662;5.196;2022-11-15T08:22:44;100619.28;;;11.46;100.00
24788;BME280;12883;52.662;5.196;2022-11-15T08:25:10;100626.66;;;11.44;100.00
24788;BME280;12883;52.662;5.196;2022-11-15T08:27:35;100614.81;;;11.46;100.00
24788;BME280;12883;52.662;5.196;2022-11-15T08:30:00;100618.06;;;11.48;100.00
24788;BME280;12883;52.662;5.196;2022-11-15T08:32:27;100620.91;;;11.47;100.00
24788;BME280;12883;52.662;5.196;2022-11-15T08:34:52;100566.25;;;11.20;100.00
24788;BME280;12883;52.662;5.196;2022-11-15T08:37:17;100608.66;;;11.52;100.00
24788;BME280;12883;52.662;5.196;2022-11-15T08:39:43;100611.31;;;11.59;100.00
24788;BME280;12883;52.662;5.196;2022-11-15T08:42:08;100612.09;;;11.66;100.00
24788;BME280;12883;52.662;5.196;2022-11-15T08:44:34;100603.31;;;11.65;100.00
24788;BME280;12883;52.662;5.196;2022-11-15T08:46:59;100596.94;;;11.73;100.00
24788;BME280;12883;52.662;5.196;2022-11-15T08:49:24;100600.03;;;11.70;100.00
24788;BME280;12883;52.662;5.196;2022-11-15T08:51:50;100600.44;;;11.67;100.00
24788;BME280;12883;52.662;5.196;2022-11-15T08:54:15;100589.75;;;11.80;100.00
24788;BME280;12883;52.662;5.196;2022-11-15T08:56:40;100590.34;;;11.82;100.00
24788;BME280;12883;52.662;5.196;2022-11-15T08:59:06;100594.00;;;11.87;100.00
24788;BME280;12883;52.662;5.196;2022-11-15T09:01:31;100586.81;;;11.88;100.00
24788;BME280;12883;52.662;5.196;2022-11-15T09:03:57;100590.53;;;11.87;100.00
24788;BME280;12883;52.662;5.196;2022-11-15T09:06:22;100585.84;;;11.82;100.00
24788;BME280;12883;52.662;5.196;2022-11-15T09:08:48;100590.34;;;11.82;100.00
24788;BME280;12883;52.662;5.196;2022-11-15T09:11:13;100586.22;;;11.86;100.00
24788;BME280;12883;52.662;5.196;2022-11-15T09:13:39;100604.63;;;11.87;100.00
24788;BME280;12883;52.662;5.196;2022-11-15T09:16:05;100589.25;;;11.96;100.00
24788;BME280;12883;52.662;5.196;2022-11-15T09:18:31;100574.75;;;11.92;100.00
24788;BME280;12883;52.662;5.196;2022-11-15T09:20:58;100580.25;;;11.97;100.00
24788;BME280;12883;52.662;5.196;2022-11-15T09:23:25;100577.78;;;11.95;100.00
24788;BME280;12883;52.662;5.196;2022-11-15T09:25:50;100570.22;;;11.99;100.00
24788;BME280;12883;52.662;5.196;2022-11-15T09:28:16;100560.16;;;12.01;100.00
24788;BME280;12883;52.662;5.196;2022-11-15T09:30:41;100559.75;;;12.04;100.00
24788;BME280;12883;52.662;5.196;2022-11-15T09:33:11;100563.59;;;12.08;100.00
24788;BME280;12883;52.662;5.196;2022-11-15T09:35:36;100574.09;;;12.03;100.00
24788;BME280;12883;52.662;5.196;2022-11-15T09:38:02;100578.56;;;12.02;100.00
24788;BME280;12883;52.662;5.196;2022-11-15T09:40:30;100565.22;;;12.09;100.00
24788;BME280;12883;52.662;5.196;2022-11-15T09:46:15;100553.22;;;12.00;100.00
24788;BME280;12883;52.662;5.196;2022-11-15T09:48:48;100568.00;;;11.96;100.00
24788;BME280;12883;52.662;5.196;2022-11-15T09:51:27;100564.03;;;12.05;100.00
24788;BME280;12883;52.662;5.196;2022-11-15T09:54:21;100565.47;;;12.01;100.00
24788;BME280;12883;52.662;5.196;2022-11-15T09:56:49;100573.19;;;12.09;100.00
24788;BME280;12883;52.662;5.196;2022-11-15T10:05:03;100565.09;;;12.28;100.00
24788;BME280;12883;52.662;5.196;2022-11-15T10:07:37;100563.84;;;12.31;100.00
24788;BME280;12883;52.662;5.196;2022-11-15T10:10:14;100558.25;;;12.39;100.00
24788;BME280;12883;52.662;5.196;2022-11-15T10:12:46;100554.13;;;12.43;100.00
24788;BME280;12883;52.662;5.196;2022-11-15T10:15:15;100549.41;;;12.45;100.00
24788;BME280;12883;52.662;5.196;2022-11-15T10:20:20;100552.69;;;12.65;100.00
24788;BME280;12883;52.662;5.196;2022-11-15T10:22:48;100545.81;;;12.57;100.00
24788;BME280;12883;52.662;5.196;2022-11-15T10:25:23;100555.63;;;12.57;100.00
24788;BME280;12883;52.662;5.196;2022-11-15T10:30:22;100533.53;;;12.56;100.00
24788;BME280;12883;52.662;5.196;2022-11-15T10:32:48;100546.94;;;12.68;100.00
24788;BME280;12883;52.662;5.196;2022-11-15T10:35:20;100549.31;;;12.76;100.00
24788;BME280;12883;52.662;5.196;2022-11-15T10:37:47;100539.13;;;12.73;100.00
24788;BME280;12883;52.662;5.196;2022-11-15T10:40:17;100543.63;;;12.72;100.00
24788;BME280;12883;52.662;5.196;2022-11-15T10:42:42;100539.88;;;12.80;100.00
24788;BME280;12883;52.662;5.196;2022-11-15T10:45:28;100534.97;;;12.77;100.00
24788;BME280;12883;52.662;5.196;2022-11-15T10:50:41;100523.16;;;12.73;100.00
24788;BME280;12883;52.662;5.196;2022-11-15T10:53:21;100513.38;;;12.67;100.00
24788;BME280;12883;52.662;5.196;2022-11-15T10:55:51;100523.28;;;12.78;100.00
24788;BME280;12883;52.662;5.196;2022-11-15T10:58:34;100515.47;;;12.83;100.00
24788;BME280;12883;52.662;5.196;2022-11-15T11:01:14;100513.69;;;12.77;100.00
24788;BME280;12883;52.662;5.196;2022-11-15T11:03:40;100498.91;;;12.81;100.00
24788;BME280;12883;52.662;5.196;2022-11-15T11:06:15;100487.25;;;12.75;100.00
24788;BME280;12883;52.662;5.196;2022-11-15T11:08:59;100471.94;;;12.71;100.00
24788;BME280;12883;52.662;5.196;2022-11-15T11:11:43;100488.66;;;12.78;100.00
24788;BME280;12883;52.662;5.196;2022-11-15T11:14:20;100497.69;;;12.77;100.00
24788;BME280;12883;52.662;5.196;2022-11-15T11:25:23;100439.56;;;12.56;100.00
24788;BME280;12883;52.662;5.196;2022-11-15T11:28:36;100496.66;;;12.78;100.00
24788;BME280;12883;52.662;5.196;2022-11-15T11:36:50;100492.47;;;12.70;100.00
24788;BME280;12883;52.662;5.196;2022-11-15T11:42:11;100503.41;;;12.80;100.00
24788;BME280;12883;52.662;5.196;2022-11-15T11:44:51;100497.28;;;12.80;100.00
24788;BME280;12883;52.662;5.196;2022-11-15T11:47:24;100442.59;;;12.41;100.00
24788;BME280;12883;52.662;5.196;2022-11-15T11:50:00;100495.19;;;12.82;100.00
24788;BME280;12883;52.662;5.196;2022-11-15T11:52:43;100492.91;;;12.85;100.00
24788;BME280;12883;52.662;5.196;2022-11-15T11:55:22;100444.31;;;12.54;100.00
24788;BME280;12883;52.662;5.196;2022-11-15T12:00:24;100491.78;;;12.75;100.00
24788;BME280;12883;52.662;5.196;2022-11-15T12:16:51;100466.03;;;12.69;100.00
24788;BME280;12883;52.662;5.196;2022-11-15T12:19:17;100469.06;;;12.72;100.00
24788;BME280;12883;52.662;5.196;2022-11-15T12:24:38;100383.53;;;12.33;100.00
24788;BME280;12883;52.662;5.196;2022-11-15T12:29:54;100417.19;;;12.63;100.00
24788;BME280;12883;52.662;5.196;2022-11-15T12:32:31;100423.75;;;12.61;100.00
24788;BME280;12883;52.662;5.196;2022-11-15T12:34:59;100424.84;;;12.71;100.00
24788;BME280;12883;52.662;5.196;2022-11-15T12:40:30;100419.16;;;12.68;100.00
24788;BME280;12883;52.662;5.196;2022-11-15T12:43:43;100412.81;;;12.69;100.00
24788;BME280;12883;52.662;5.196;2022-11-15T12:48:59;100404.97;;;12.74;100.00
24788;BME280;12883;52.662;5.196;2022-11-15T13:02:30;100379.38;;;12.73;100.00
24788;BME280;12883;52.662;5.196;2022-11-15T13:08:00;100383.50;;;12.69;100.00
24788;BME280;12883;52.662;5.196;2022-11-15T13:13:07;100344.06;;;12.48;100.00
24788;BME280;12883;52.662;5.196;2022-11-15T13:15:54;100357.88;;;12.56;100.00
24788;BME280;12883;52.662;5.196;2022-11-15T13:18:33;100348.78;;;12.46;100.00
24788;BME280;12883;52.662;5.196;2022-11-15T13:21:00;100352.19;;;12.53;100.00
24788;BME280;12883;52.662;5.196;2022-11-15T13:23:26;100353.44;;;12.50;100.00
24788;BME280;12883;52.662;5.196;2022-11-15T13:25:57;100339.91;;;12.52;100.00
24788;BME280;12883;52.662;5.196;2022-11-15T13:31:24;100336.53;;;12.45;100.00
24788;BME280;12883;52.662;5.196;2022-11-15T13:33:50;100336.66;;;12.50;100.00
24788;BME280;12883;52.662;5.196;2022-11-15T13:36:20;100316.19;;;12.32;100.00
24788;BME280;12883;52.662;5.196;2022-11-15T13:39:04;100335.91;;;12.43;100.00
24788;BME280;12883;52.662;5.196;2022-11-15T13:41:32;100335.69;;;12.44;100.00
24788;BME280;12883;52.662;5.196;2022-11-15T13:43:59;100331.41;;;12.43;100.00
24788;BME280;12883;52.662;5.196;2022-11-15T13:46:34;100321.81;;;12.42;100.00
24788;BME280;12883;52.662;5.196;2022-11-15T13:51:28;100317.16;;;12.38;100.00
24788;BME280;12883;52.662;5.196;2022-11-15T13:54:03;100315.38;;;12.32;100.00
24788;BME280;12883;52.662;5.196;2022-11-15T13:56:31;100284.50;;;12.13;100.00
24788;BME280;12883;52.662;5.196;2022-11-15T13:58:57;100303.03;;;12.37;100.00
24788;BME280;12883;52.662;5.196;2022-11-15T14:01:31;100292.84;;;12.34;100.00
24788;BME280;12883;52.662;5.196;2022-11-15T14:03:58;100267.44;;;12.20;100.00
24788;BME280;12883;52.662;5.196;2022-11-15T14:06:25;100277.09;;;12.33;100.00
24788;BME280;12883;52.662;5.196;2022-11-15T14:09:31;100274.44;;;12.33;100.00
24788;BME280;12883;52.662;5.196;2022-11-15T14:11:58;100287.16;;;12.31;100.00
24788;BME280;12883;52.662;5.196;2022-11-15T14:14:25;100287.75;;;12.33;100.00
24788;BME280;12883;52.662;5.196;2022-11-15T14:16:54;100281.03;;;12.30;100.00
24788;BME280;12883;52.662;5.196;2022-11-15T14:22:14;100276.16;;;12.27;100.00
24788;BME280;12883;52.662;5.196;2022-11-15T14:24:42;100278.44;;;12.24;100.00
24788;BME280;12883;52.662;5.196;2022-11-15T14:27:17;100267.13;;;12.28;100.00
24788;BME280;12883;52.662;5.196;2022-11-15T14:29:43;100245.06;;;12.10;100.00
24788;BME280;12883;52.662;5.196;2022-11-15T14:32:17;100268.25;;;12.21;100.00
24788;BME280;12883;52.662;5.196;2022-11-15T14:34:43;100268.59;;;12.24;100.00
24788;BME280;12883;52.662;5.196;2022-11-15T14:37:29;100268.25;;;12.21;100.00
24788;BME280;12883;52.662;5.196;2022-11-15T14:39:58;100255.97;;;12.20;100.00
24788;BME280;12883;52.662;5.196;2022-11-15T14:42:23;100257.16;;;12.24;100.00
24788;BME280;12883;52.662;5.196;2022-11-15T14:44:49;100263.59;;;12.16;100.00
24788;BME280;12883;52.662;5.196;2022-11-15T14:47:15;100258.94;;;12.12;100.00